createdAt,value
2018-09-13T14:58:32.837Z,17.19
2018-09-13T15:01:02.049Z,17.19
2018-09-13T15:03:31.328Z,17.27
2018-09-13T15:06:00.823Z,17.23
2018-09-13T15:08:30.065Z,17.25
2018-09-13T15:10:59.352Z,17.23
2018-09-13T15:13:28.603Z,17.15
2018-09-13T15:15:58.164Z,17.07
2018-09-13T15:18:27.110Z,17.06
2018-09-13T15:20:56.804Z,17.01
2018-09-13T15:23:26.042Z,17.00
2018-09-13T15:25:55.359Z,16.90
2018-09-13T15:28:24.559Z,17.03
2018-09-13T15:30:53.937Z,17.08
2018-09-13T15:33:23.551Z,17.22
2018-09-13T15:35:52.763Z,17.14
2018-09-13T15:38:21.948Z,17.05
2018-09-13T15:40:51.272Z,17.06
2018-09-13T15:43:20.545Z,17.05
2018-09-13T15:47:51.208Z,17.06
2018-09-13T15:50:20.595Z,16.96
2018-09-13T15:52:49.713Z,16.89
2018-09-13T15:55:19.004Z,16.64
2018-09-13T15:57:48.187Z,16.48
2018-09-13T16:00:17.296Z,16.32
2018-09-13T16:02:46.400Z,16.40
2018-09-13T16:05:15.792Z,16.33
2018-09-13T16:07:45.139Z,16.31
2018-09-13T16:10:14.297Z,16.19
2018-09-13T16:12:43.394Z,16.17
2018-09-13T16:15:13.309Z,16.34
2018-09-13T16:17:42.673Z,16.20
2018-09-13T16:20:18.495Z,16.18
2018-09-13T16:22:47.734Z,16.13
2018-09-13T16:25:16.960Z,16.13
2018-09-13T16:27:46.223Z,15.97
2018-09-13T16:30:15.452Z,15.93
2018-09-13T16:32:44.614Z,15.88
2018-09-13T16:35:13.901Z,15.90
2018-09-13T16:37:48.308Z,15.93
2018-09-13T16:40:22.774Z,15.81
2018-09-13T16:42:57.292Z,15.73
2018-09-13T16:45:30.320Z,15.81
2018-09-13T16:48:00.989Z,15.57
2018-09-13T16:50:30.232Z,15.52
2018-09-13T16:52:59.422Z,15.66
2018-09-13T16:55:28.744Z,15.77
2018-09-13T16:57:58.036Z,15.62
2018-09-13T17:00:27.727Z,15.70
2018-09-13T17:02:56.896Z,15.60
2018-09-13T17:05:26.242Z,15.57
2018-09-13T17:07:55.431Z,15.57
2018-09-13T17:10:24.757Z,15.47
2018-09-13T17:12:53.900Z,15.53
2018-09-13T17:15:23.229Z,15.62
2018-09-13T17:17:52.396Z,15.53
2018-09-13T17:20:21.661Z,15.60
2018-09-13T17:22:50.872Z,15.63
2018-09-13T17:25:20.235Z,15.48
2018-09-13T17:27:49.415Z,15.55
2018-09-13T17:30:18.835Z,15.46
2018-09-13T17:32:48.098Z,15.48
2018-09-13T17:35:17.549Z,15.45
2018-09-13T17:37:46.816Z,15.40
2018-09-13T17:40:15.939Z,15.61
2018-09-13T17:42:45.325Z,15.45
2018-09-13T17:45:14.641Z,15.43
2018-09-13T17:47:43.660Z,15.42
2018-09-13T17:50:12.966Z,15.51
2018-09-13T17:52:42.419Z,15.45
2018-09-13T17:55:11.640Z,15.42
2018-09-13T17:57:40.924Z,15.49
2018-09-13T18:00:11.277Z,15.40
2018-09-13T18:02:40.461Z,15.44
2018-09-13T18:05:09.921Z,15.49
2018-09-13T18:07:39.036Z,15.41
2018-09-13T18:10:08.481Z,15.48
2018-09-13T18:12:37.881Z,15.50
2018-09-13T18:15:14.626Z,15.60
2018-09-13T18:17:44.144Z,15.44
2018-09-13T18:20:14.173Z,15.32
2018-09-13T18:22:43.752Z,15.31
2018-09-13T18:25:12.892Z,15.26
2018-09-13T18:27:42.356Z,15.09
2018-09-13T18:30:11.701Z,15.04
2018-09-13T18:32:41.128Z,15.20
2018-09-13T18:35:10.376Z,15.21
2018-09-13T18:37:39.740Z,15.08
2018-09-13T18:40:09.685Z,15.04
2018-09-13T18:42:39.060Z,14.90
2018-09-13T18:45:08.306Z,14.92
2018-09-13T18:47:37.548Z,14.75
2018-09-13T18:50:06.903Z,14.60
2018-09-13T18:52:36.165Z,14.69
2018-09-13T18:55:05.604Z,14.72
2018-09-13T18:57:34.953Z,14.72
2018-09-13T19:00:04.522Z,14.62
2018-09-13T19:02:33.667Z,14.64
2018-09-13T19:05:02.895Z,14.61
2018-09-13T19:07:32.083Z,14.57
2018-09-13T19:10:01.234Z,14.73
2018-09-13T19:12:30.507Z,14.59
2018-09-13T19:14:59.811Z,14.62
2018-09-13T19:17:29.195Z,14.53
2018-09-13T19:19:58.364Z,14.62
2018-09-13T19:22:31.348Z,14.46
2018-09-13T19:25:00.548Z,14.49
2018-09-13T19:27:29.879Z,14.49
2018-09-13T19:30:00.265Z,14.56
2018-09-13T19:32:29.768Z,14.56
2018-09-13T19:34:58.984Z,14.51
2018-09-13T19:37:28.222Z,14.50
2018-09-13T19:39:57.471Z,14.48
2018-09-13T19:42:26.693Z,14.46
2018-09-13T19:44:55.964Z,14.53
2018-09-13T19:47:25.284Z,14.53
2018-09-13T19:49:54.468Z,14.51
2018-09-13T19:52:23.484Z,14.50
2018-09-13T19:54:52.771Z,14.58
2018-09-13T19:57:21.904Z,14.58
2018-09-13T19:59:50.952Z,14.44
2018-09-13T20:02:20.191Z,14.54
2018-09-13T20:04:49.856Z,14.53
2018-09-13T20:07:19.028Z,14.54
2018-09-13T20:09:48.360Z,14.45
2018-09-13T20:12:17.854Z,14.54
2018-09-13T20:14:46.980Z,14.52
2018-09-13T20:17:16.190Z,14.53
2018-09-13T20:19:45.576Z,14.53
2018-09-13T20:22:14.887Z,14.52
2018-09-13T20:24:44.116Z,14.54
2018-09-13T20:27:13.759Z,14.51
2018-09-13T20:29:43.426Z,14.58
2018-09-13T20:32:12.675Z,14.57
2018-09-13T20:34:41.892Z,14.55
2018-09-13T20:37:11.104Z,14.52
2018-09-13T20:39:40.343Z,14.64
2018-09-13T20:42:09.481Z,14.60
2018-09-13T20:44:38.673Z,14.46
2018-09-13T20:47:08.199Z,14.38
2018-09-13T20:49:37.160Z,14.54
2018-09-13T20:52:06.278Z,14.60
2018-09-13T20:54:35.509Z,14.60
2018-09-13T20:57:04.988Z,14.59
2018-09-13T20:59:39.280Z,14.52
2018-09-13T21:02:09.058Z,14.55
2018-09-13T21:04:38.202Z,14.60
2018-09-13T21:07:07.343Z,14.50
2018-09-13T21:09:36.812Z,14.50
2018-09-13T21:12:05.931Z,14.52
2018-09-13T21:14:35.297Z,14.50
2018-09-13T21:17:04.968Z,14.47
2018-09-13T21:19:34.125Z,14.44
2018-09-13T21:22:03.217Z,14.57
2018-09-13T21:24:32.606Z,14.60
2018-09-13T21:27:08.542Z,14.50
2018-09-13T21:29:39.744Z,14.58
2018-09-13T21:32:09.133Z,14.68
2018-09-13T21:34:38.488Z,14.78
2018-09-13T21:37:07.820Z,14.68
2018-09-13T21:39:37.016Z,14.71
2018-09-13T21:42:06.424Z,14.67
2018-09-13T21:44:35.592Z,14.62
2018-09-13T21:47:05.031Z,14.52
2018-09-13T21:49:34.799Z,14.60
2018-09-13T21:52:04.074Z,14.46
2018-09-13T21:54:34.068Z,14.48
2018-09-13T21:57:03.623Z,14.51
2018-09-13T21:59:32.917Z,14.46
2018-09-13T22:02:02.156Z,14.52
2018-09-13T22:04:31.341Z,14.59
2018-09-13T22:07:00.610Z,14.54
2018-09-13T22:09:29.917Z,14.47
2018-09-13T22:11:59.143Z,14.52
2018-09-13T22:14:28.460Z,14.50
2018-09-13T22:16:57.570Z,14.57
2018-09-13T22:19:26.905Z,14.54
2018-09-13T22:21:56.140Z,14.53
2018-09-13T22:24:25.100Z,14.48
2018-09-13T22:26:54.368Z,14.54
2018-09-13T22:29:23.716Z,14.53
2018-09-13T22:31:52.948Z,14.56
2018-09-13T22:34:22.316Z,14.60
2018-09-13T22:36:51.659Z,14.55
2018-09-13T22:39:20.841Z,14.59
2018-09-13T22:41:50.439Z,14.63
2018-09-13T22:44:19.636Z,14.61
2018-09-13T22:46:48.836Z,14.63
2018-09-13T22:49:18.028Z,14.59
2018-09-13T22:51:47.238Z,14.63
2018-09-13T22:54:16.417Z,14.60
2018-09-13T22:56:45.840Z,14.60
2018-09-13T22:59:15.103Z,14.54
2018-09-13T23:01:44.644Z,14.63
2018-09-13T23:04:13.925Z,14.56
2018-09-13T23:06:43.220Z,14.61
2018-09-13T23:09:13.056Z,14.63
2018-09-13T23:11:42.372Z,14.62
2018-09-13T23:14:11.736Z,14.57
2018-09-13T23:16:41.060Z,14.54
2018-09-13T23:19:10.172Z,14.56
2018-09-13T23:21:39.577Z,14.58
2018-09-13T23:24:08.845Z,14.64
2018-09-13T23:26:38.347Z,14.63
2018-09-13T23:29:07.948Z,14.58
2018-09-13T23:31:38.121Z,14.47
2018-09-13T23:34:07.452Z,14.41
2018-09-13T23:36:36.575Z,14.53
2018-09-13T23:39:08.684Z,14.50
2018-09-13T23:41:38.359Z,14.49
2018-09-13T23:44:07.521Z,14.58
2018-09-13T23:46:37.209Z,14.60
2018-09-13T23:49:06.539Z,14.64
2018-09-13T23:51:35.761Z,14.57
2018-09-13T23:54:05.127Z,14.52
2018-09-13T23:56:34.468Z,14.44
2018-09-13T23:59:03.732Z,14.56
